»·PEaware :: WOW170 BIKF-KLAX

WOW170 :: BIKF-KLAX

FLIGHT INFORMATION

Flight Status: Arrived
Operator:
Air Southwest
More flights by this operator :: More flights under this callsign
Pilot: Jordan S. (14404)
Aircraft: Unknown
(B748)
More flights by this aircraft type
Origin: BIKF Keflavik
Iceland
Destination: KLAX Los Angeles Intl
United States
More flights between these airports :: More routes between these airports
Route: +AVPUT YFB SCAG KAIIN SCAG YBR J562 DIK DDY J107 BERYL LAKRR Q88 HAKMN ANJLL1
File this flight plan on PilotEdge
Remarks:
Altitude:
(Current/Filed)
36,000ft
Speed:
(Current/Filed)
480kts
Departed: 11-Sep-17 01:02 AM
Arrived: 11-Sep-17 09:00 AM
Distance/Time
Traveled:
3737nm/7:58
Distance/Time
To Go:
Arrived

Flight Plot

Page will automatically refresh every two minutes.

Flight plan parsing failed; only flown route is shown


Map Options




Map Legend


Flown Route
Filed Route
Departure Airport
Arrival Airport
Navaid (VOR, NDB)
Fix

Horizontal Profiles

Position Reports

Time Latitude Longitude Heading Altitude Ground
Speed
11-Sep-17 01:05 63.891251 -22.798375 294 3877ft 238kts
11-Sep-17 01:06 63.939653 -22.897860 321 5837ft 238kts
11-Sep-17 01:07 63.993177 -22.995470 321 7452ft 272kts
11-Sep-17 01:08 64.036078 -23.109890 302 8980ft 305kts
11-Sep-17 01:09 64.078038 -23.290886 294 10771ft 347kts
11-Sep-17 01:10 64.110761 -23.471690 291 12775ft 367kts
11-Sep-17 01:11 64.147296 -23.690876 289 14794ft 378kts
11-Sep-17 01:12 64.182788 -23.918684 288 16637ft 387kts
11-Sep-17 01:13 64.218325 -24.152010 289 18348ft 394kts
11-Sep-17 01:14 64.254302 -24.389933 289 19974ft 397kts
11-Sep-17 01:15 64.289988 -24.629718 289 21527ft 397kts
11-Sep-17 01:16 64.325359 -24.871856 288 22574ft 406kts
11-Sep-17 01:17 64.361153 -25.120168 288 23652ft 412kts
11-Sep-17 01:18 64.396974 -25.371595 288 24708ft 416kts
11-Sep-17 01:19 64.432632 -25.625462 288 25727ft 418kts
11-Sep-17 01:20 64.467644 -25.879444 287 26699ft 417kts
11-Sep-17 01:21 64.502086 -26.132952 287 27621ft 413kts
11-Sep-17 01:22 64.535893 -26.384950 287 28445ft 408kts
11-Sep-17 01:23 64.568694 -26.633029 287 29188ft 400kts
11-Sep-17 01:24 64.600655 -26.879322 286 29825ft 396kts
11-Sep-17 01:25 64.631827 -27.123100 286 30731ft 391kts
11-Sep-17 01:26 64.662300 -27.364443 286 31362ft 388kts
11-Sep-17 01:27 64.692101 -27.603899 286 31719ft 389kts
11-Sep-17 01:28 64.721473 -27.844342 285 32269ft 382kts
11-Sep-17 01:29 64.748675 -28.070501 285 33640ft 334kts
11-Sep-17 01:30 64.770747 -28.256028 285 33430ft 285kts
11-Sep-17 01:31 64.792954 -28.444818 285 31061ft 337kts
11-Sep-17 01:32 64.815891 -28.640962 284 31353ft 301kts
11-Sep-17 01:33 64.837119 -28.850673 283 30057ft 343kts
11-Sep-17 01:34 64.860521 -29.070734 286 30047ft 349kts
11-Sep-17 01:35 64.887778 -29.291816 285 30015ft 351kts
11-Sep-17 01:36 64.913273 -29.515014 285 30027ft 358kts
11-Sep-17 01:37 64.938197 -29.744408 283 30049ft 371kts
11-Sep-17 01:38 64.963535 -29.984393 283 30067ft 389kts
11-Sep-17 01:39 64.989589 -30.234869 283 30052ft 401kts
11-Sep-17 01:40 65.016040 -30.493323 283 30042ft 412kts
11-Sep-17 01:41 65.042876 -30.760861 283 30046ft 426kts
11-Sep-17 01:42 65.069980 -31.037239 283 30052ft 442kts
11-Sep-17 01:43 65.097953 -31.327800 283 30058ft 463kts
11-Sep-17 01:44 65.127587 -31.631603 283 30063ft 487kts
11-Sep-17 01:45 65.157381 -31.948396 282 30028ft 494kts
11-Sep-17 01:46 65.185842 -32.266905 282 30008ft 494kts
11-Sep-17 01:47 65.211052 -32.556428 282 30002ft 494kts
11-Sep-17 01:48 65.238135 -32.875198 281 30000ft 494kts
11-Sep-17 01:49 65.264753 -33.196496 281 30000ft 494kts
11-Sep-17 01:50 65.290605 -33.517870 281 29999ft 494kts
11-Sep-17 01:51 65.315768 -33.840054 280 29999ft 494kts
11-Sep-17 01:52 65.340160 -34.162251 280 29999ft 494kts
11-Sep-17 01:53 65.363952 -34.485295 280 29999ft 494kts
11-Sep-17 01:54 65.387134 -34.810120 279 29999ft 494kts
11-Sep-17 01:55 65.409443 -35.133854 279 29999ft 494kts
11-Sep-17 01:56 65.431203 -35.459516 279 29999ft 494kts
11-Sep-17 01:57 65.452167 -35.784041 278 29999ft 494kts
11-Sep-17 01:58 65.472410 -36.109682 278 29999ft 494kts
11-Sep-17 01:59 65.492068 -36.436585 278 29999ft 494kts
11-Sep-17 02:00 65.510883 -36.761394 277 29999ft 494kts
11-Sep-17 02:01 65.529092 -37.089590 277 29999ft 494kts
11-Sep-17 02:02 65.546454 -37.414702 277 29999ft 494kts
11-Sep-17 02:03 65.563246 -37.742571 276 29999ft 494kts
11-Sep-17 02:04 65.579232 -38.070142 276 29999ft 494kts
11-Sep-17 02:05 65.594613 -38.399035 276 29999ft 494kts
11-Sep-17 02:06 65.609189 -38.725579 275 29999ft 494kts
11-Sep-17 02:07 65.623105 -39.054757 275 29999ft 494kts
11-Sep-17 02:08 65.636371 -39.385227 275 29999ft 494kts
11-Sep-17 02:09 65.648910 -39.715119 274 29999ft 494kts
11-Sep-17 02:10 65.660687 -40.045207 274 29999ft 494kts
11-Sep-17 02:11 65.671776 -40.375582 274 29999ft 494kts
11-Sep-17 02:12 65.682161 -40.705971 273 29999ft 494kts
11-Sep-17 02:13 65.691815 -41.037356 273 29999ft 494kts
11-Sep-17 02:14 65.700739 -41.367936 273 29999ft 494kts
11-Sep-17 02:15 65.708998 -41.700026 273 29999ft 494kts
11-Sep-17 02:16 65.716482 -42.031460 273 29999ft 494kts
11-Sep-17 02:17 65.723300 -42.364637 273 29999ft 494kts
11-Sep-17 02:18 65.729376 -42.696272 272 29999ft 494kts
11-Sep-17 02:19 65.734709 -43.028501 272 29999ft 494kts
11-Sep-17 02:20 65.739336 -43.360775 272 29999ft 494kts
11-Sep-17 02:21 65.743246 -43.692813 271 29999ft 494kts
11-Sep-17 02:22 65.746432 -44.025881 271 29999ft 494kts
11-Sep-17 02:23 65.748897 -44.358636 271 29999ft 494kts
11-Sep-17 02:24 65.750646 -44.692170 270 29999ft 494kts
11-Sep-17 02:25 65.751665 -45.025075 270 29999ft 494kts
11-Sep-17 02:26 65.751958 -45.358227 270 29999ft 494kts
11-Sep-17 02:27 65.751533 -45.690277 269 29999ft 494kts
11-Sep-17 02:28 65.750384 -46.023706 269 29999ft 494kts
11-Sep-17 02:29 65.748516 -46.355482 269 29999ft 494kts
11-Sep-17 02:30 65.745918 -46.688433 268 29999ft 494kts
11-Sep-17 02:31 65.742619 -47.020137 268 29999ft 494kts
11-Sep-17 02:32 65.738579 -47.352847 268 29999ft 494kts
11-Sep-17 02:33 65.733817 -47.685130 267 29999ft 494kts
11-Sep-17 02:34 65.728345 -48.017690 267 29999ft 494kts
11-Sep-17 02:35 65.722141 -48.349881 267 29999ft 494kts
11-Sep-17 02:36 65.715280 -48.678730 266 29999ft 494kts
11-Sep-17 02:37 65.707680 -49.009900 266 29999ft 494kts
11-Sep-17 02:38 65.699342 -49.340959 266 29999ft 494kts
11-Sep-17 02:39 65.690244 -49.672903 265 29999ft 494kts
11-Sep-17 02:40 65.680466 -50.004351 265 29999ft 494kts
11-Sep-17 02:41 65.669934 -50.336103 265 29999ft 494kts
11-Sep-17 02:42 65.658733 -50.665745 264 29999ft 494kts
11-Sep-17 02:43 65.646796 -50.996644 264 29999ft 494kts
11-Sep-17 02:44 65.634150 -51.326645 264 29999ft 494kts
11-Sep-17 02:45 65.620775 -51.656301 263 29941ft 493kts
11-Sep-17 02:46 65.606361 -51.993900 263 30654ft 521kts
11-Sep-17 02:47 65.590714 -52.341275 263 32558ft 522kts
11-Sep-17 02:48 65.574435 -52.684225 263 34058ft 513kts
11-Sep-17 02:49 65.557885 -53.018096 263 35719ft 499kts
11-Sep-17 02:50 65.540735 -53.348472 263 35970ft 499kts
11-Sep-17 02:51 65.522439 -53.685692 262 36030ft 514kts
11-Sep-17 02:52 65.503415 -54.023348 262 36001ft 511kts
11-Sep-17 02:53 65.483628 -54.360153 262 36000ft 511kts
11-Sep-17 02:54 65.463128 -54.695383 261 36000ft 511kts
11-Sep-17 02:55 65.442011 -55.029042 261 36000ft 511kts
11-Sep-17 02:56 65.420064 -55.363182 261 35999ft 511kts
11-Sep-17 02:57 65.397377 -55.696514 260 35999ft 511kts
11-Sep-17 02:58 65.373918 -56.030716 260 35999ft 511kts
11-Sep-17 02:59 65.349624 -56.365072 260 35999ft 511kts
11-Sep-17 03:00 65.324510 -56.699528 259 35999ft 511kts
11-Sep-17 03:01 65.298877 -57.031404 259 35999ft 511kts
11-Sep-17 03:02 65.272392 -57.363752 259 35999ft 511kts
11-Sep-17 03:03 65.245040 -57.696540 258 35999ft 511kts
11-Sep-17 03:04 65.217148 -58.027282 258 35999ft 511kts
11-Sep-17 03:05 65.188457 -58.357714 258 35999ft 511kts
11-Sep-17 03:06 65.159233 -58.684770 257 35999ft 511kts
11-Sep-17 03:07 65.129315 -59.011772 253 35999ft 511kts
11-Sep-17 03:08 65.166570 -58.986206 18 23910ft 388kts
11-Sep-17 03:09 65.270037 -58.970097 339 25925ft 366kts
11-Sep-17 03:10 65.310954 -59.162559 246 35355ft 364kts
11-Sep-17 03:11 65.242407 -59.334541 221 35666ft 512kts
11-Sep-17 03:12 65.139191 -59.552755 222 36254ft 512kts
11-Sep-17 03:13 65.046491 -59.801882 247 36049ft 500kts
11-Sep-17 03:14 65.017553 -60.120887 258 36030ft 496kts
11-Sep-17 03:15 64.985377 -60.419967 254 40063ft 454kts
11-Sep-17 03:16 64.949321 -60.710196 253 39220ft 461kts
11-Sep-17 03:17 64.913642 -60.991675 253 43886ft 478kts
11-Sep-17 03:18 64.875099 -61.292805 253 44098ft 507kts
11-Sep-17 03:19 64.835488 -61.592868 253 43884ft 460kts
11-Sep-17 03:20 64.798501 -61.871045 252 38496ft 506kts
11-Sep-17 03:21 64.757127 -62.183563 252 38243ft 510kts
11-Sep-17 03:22 64.714717 -62.496909 252 38029ft 507kts
11-Sep-17 03:23 64.671567 -62.808553 251 38009ft 507kts
11-Sep-17 03:24 64.627843 -63.119278 251 38002ft 507kts
11-Sep-17 03:25 64.583359 -63.428943 251 38000ft 506kts
11-Sep-17 03:26 64.538226 -63.737437 250 38000ft 506kts
11-Sep-17 03:27 64.518078 -63.873961 250 37999ft 506kts
11-Sep-17 03:28 64.483915 -64.102975 250 37996ft 506kts
11-Sep-17 03:29 64.445436 -64.356795 250 37997ft 506kts
11-Sep-17 03:30 64.398289 -64.662503 249 38008ft 507kts
11-Sep-17 03:31 64.350730 -64.967069 249 37997ft 507kts
11-Sep-17 03:32 64.294293 -65.321271 249 37999ft 507kts
11-Sep-17 03:33 64.245166 -65.623615 249 37998ft 507kts
11-Sep-17 03:34 64.203819 -65.875191 249 37998ft 507kts
11-Sep-17 03:35 64.154024 -66.173746 249 37999ft 507kts
11-Sep-17 03:36 64.112671 -66.417386 248 38000ft 507kts
11-Sep-17 03:43 63.739108 -68.484843 246 37999ft 507kts
11-Sep-17 03:44 63.680891 -68.771345 244 38000ft 507kts
11-Sep-17 03:45 63.621245 -69.056797 244 37999ft 507kts
11-Sep-17 03:46 63.561508 -69.340918 244 37999ft 507kts
11-Sep-17 03:47 63.501073 -69.625069 244 37999ft 507kts
11-Sep-17 03:48 63.440451 -69.907200 244 37999ft 507kts
11-Sep-17 03:49 63.378886 -70.189641 243 37999ft 507kts
11-Sep-17 03:50 63.316708 -70.470315 243 37999ft 507kts
11-Sep-17 03:51 63.254286 -70.748559 243 37999ft 507kts
11-Sep-17 03:52 63.191381 -71.026520 243 37999ft 507kts
11-Sep-17 03:53 63.127507 -71.304188 243 37999ft 507kts
11-Sep-17 03:54 63.063176 -71.579846 243 37999ft 507kts
11-Sep-17 03:55 62.998559 -71.854029 242 37999ft 507kts
11-Sep-17 03:56 62.933421 -72.127245 242 37999ft 507kts
11-Sep-17 03:57 62.867192 -72.398958 241 38000ft 507kts
11-Sep-17 03:58 62.799704 -72.668710 241 37999ft 507kts
11-Sep-17 03:59 62.732838 -72.938174 241 37999ft 507kts
11-Sep-17 04:00 62.665520 -73.206997 241 37999ft 507kts
11-Sep-17 04:01 62.597623 -73.473949 241 37999ft 507kts
11-Sep-17 04:02 62.529198 -73.739775 240 37999ft 507kts
11-Sep-17 04:03 62.460775 -74.003649 240 37999ft 507kts
11-Sep-17 04:04 62.391499 -74.266723 240 37999ft 507kts
11-Sep-17 04:05 62.321594 -74.528630 240 37999ft 507kts
11-Sep-17 04:06 62.251379 -74.789144 239 37999ft 507kts
11-Sep-17 04:07 62.181006 -75.048046 239 37999ft 507kts
11-Sep-17 04:08 62.109677 -75.306481 239 37999ft 507kts
11-Sep-17 04:09 62.037883 -75.563344 239 37999ft 507kts
11-Sep-17 04:10 61.965786 -75.819111 238 37999ft 507kts
11-Sep-17 04:11 61.893197 -76.074148 238 37999ft 507kts
11-Sep-17 04:12 61.818904 -76.326820 238 37999ft 507kts
11-Sep-17 04:13 61.744959 -76.577567 238 37999ft 507kts
11-Sep-17 04:14 61.671176 -76.828205 237 37999ft 507kts
11-Sep-17 04:15 61.597039 -77.077708 237 37999ft 507kts
11-Sep-17 04:16 61.522276 -77.325416 237 37999ft 507kts
11-Sep-17 04:17 61.446867 -77.572364 237 37999ft 507kts
11-Sep-17 04:18 61.371068 -77.818761 237 37999ft 507kts
11-Sep-17 04:19 61.294897 -78.064194 236 37999ft 507kts
11-Sep-17 04:20 61.217983 -78.308362 236 37999ft 507kts
11-Sep-17 04:21 61.140540 -78.551397 236 37999ft 507kts
11-Sep-17 04:22 61.063612 -78.790903 236 38000ft 507kts
11-Sep-17 04:23 60.985614 -79.031852 236 37999ft 507kts
11-Sep-17 04:24 60.907084 -79.271001 235 37999ft 507kts
11-Sep-17 04:25 60.828081 -79.505665 235 37999ft 507kts
11-Sep-17 04:26 60.748119 -79.741714 235 37999ft 507kts
11-Sep-17 04:27 60.668259 -79.978689 235 37999ft 507kts
11-Sep-17 04:28 60.588021 -80.213659 235 37999ft 507kts
11-Sep-17 04:29 60.507436 -80.446658 235 37999ft 507kts
11-Sep-17 04:30 60.426268 -80.679033 234 37999ft 507kts
11-Sep-17 04:31 60.345129 -80.910369 234 37999ft 507kts
11-Sep-17 04:32 60.263448 -81.140219 234 37999ft 507kts
11-Sep-17 04:33 60.180783 -81.369933 234 37999ft 507kts
11-Sep-17 04:34 60.097935 -81.597901 234 37999ft 507kts
11-Sep-17 04:35 60.015100 -81.824533 233 37999ft 507kts
11-Sep-17 04:36 59.931790 -82.050379 233 37999ft 507kts
11-Sep-17 04:37 59.847657 -82.273739 232 38000ft 507kts
11-Sep-17 04:38 59.762900 -82.495017 233 37999ft 507kts
11-Sep-17 04:39 59.678020 -82.717407 232 37999ft 507kts
11-Sep-17 04:40 59.593657 -82.938245 232 37999ft 507kts
11-Sep-17 04:41 59.508260 -83.158587 232 37999ft 507kts
11-Sep-17 04:42 59.422492 -83.377225 232 37999ft 507kts
11-Sep-17 04:43 59.336106 -83.595428 232 37999ft 507kts
11-Sep-17 04:44 59.250154 -83.811401 231 37999ft 507kts
11-Sep-17 04:45 59.163471 -84.027399 231 37999ft 507kts
11-Sep-17 04:46 59.076324 -84.241673 231 37999ft 507kts
11-Sep-17 04:47 58.988703 -84.454981 231 37999ft 507kts
11-Sep-17 04:48 58.901247 -84.666054 230 37999ft 507kts
11-Sep-17 04:49 58.812794 -84.876095 230 37999ft 507kts
11-Sep-17 04:50 58.723769 -85.085949 230 37999ft 507kts
11-Sep-17 04:51 58.634878 -85.294798 230 37999ft 507kts
11-Sep-17 04:52 58.545666 -85.502664 230 37999ft 507kts
11-Sep-17 04:53 58.456048 -85.709720 230 37999ft 507kts
11-Sep-17 04:54 58.366839 -85.915159 230 37999ft 507kts
11-Sep-17 04:55 58.276491 -86.120482 229 37999ft 507kts
11-Sep-17 04:56 58.186151 -86.323536 229 37999ft 507kts
11-Sep-17 04:57 58.095544 -86.525464 229 37999ft 507kts
11-Sep-17 04:58 58.004456 -86.727055 229 37999ft 507kts
11-Sep-17 04:59 57.913278 -86.928123 229 37999ft 507kts
11-Sep-17 05:00 57.821235 -87.126304 228 37999ft 507kts
11-Sep-17 05:01 57.728600 -87.323806 229 37999ft 507kts
11-Sep-17 05:02 57.636230 -87.521010 229 37999ft 507kts
11-Sep-17 05:03 57.543568 -87.717708 228 37999ft 507kts
11-Sep-17 05:04 57.450647 -87.914297 228 37999ft 507kts
11-Sep-17 05:05 57.357557 -88.108533 228 37999ft 507kts
11-Sep-17 05:06 57.263676 -88.302396 228 37999ft 507kts
11-Sep-17 05:07 57.169576 -88.495165 228 37999ft 507kts
11-Sep-17 05:08 57.076320 -88.684763 227 37999ft 507kts
11-Sep-17 05:09 56.982169 -88.875900 227 37999ft 507kts
11-Sep-17 05:10 56.887202 -89.066234 227 37999ft 507kts
11-Sep-17 05:11 56.791107 -89.254090 227 37999ft 507kts
11-Sep-17 05:12 56.695229 -89.441518 227 37999ft 507kts
11-Sep-17 05:13 56.599836 -89.627820 227 37999ft 507kts
11-Sep-17 05:14 56.503947 -89.814662 226 37999ft 507kts
11-Sep-17 05:15 56.408205 -89.999428 226 37999ft 507kts
11-Sep-17 05:16 56.311353 -90.184008 226 37999ft 507kts
11-Sep-17 05:17 56.214720 -90.366650 226 37999ft 507kts
11-Sep-17 05:18 56.117758 -90.548547 226 37999ft 507kts
11-Sep-17 05:19 56.020748 -90.729499 225 37999ft 507kts
11-Sep-17 05:20 55.923266 -90.910846 225 37999ft 507kts
11-Sep-17 05:21 55.824870 -91.089915 225 37999ft 507kts
11-Sep-17 05:22 55.726533 -91.266856 225 37999ft 507kts
11-Sep-17 05:23 55.627887 -91.444761 225 37999ft 507kts
11-Sep-17 05:24 55.529379 -91.621393 225 37999ft 507kts
11-Sep-17 05:25 55.430786 -91.797670 225 37999ft 507kts
11-Sep-17 05:26 55.332332 -91.972290 224 37999ft 507kts
11-Sep-17 05:27 55.232579 -92.146990 224 37999ft 507kts
11-Sep-17 05:28 55.133117 -92.319806 224 37999ft 507kts
11-Sep-17 05:29 55.033380 -92.491868 224 37999ft 507kts
11-Sep-17 05:30 54.932912 -92.663929 224 37999ft 507kts
11-Sep-17 05:31 54.832797 -92.834211 223 37999ft 507kts
11-Sep-17 05:32 54.731956 -93.003152 224 37999ft 507kts
11-Sep-17 05:33 54.630913 -93.172190 224 37999ft 507kts
11-Sep-17 05:34 54.530263 -93.339678 224 37999ft 507kts
11-Sep-17 05:35 54.428738 -93.507341 224 37999ft 507kts
11-Sep-17 05:36 54.327302 -93.673659 223 37999ft 507kts
11-Sep-17 05:37 54.225967 -93.839911 223 37999ft 507kts
11-Sep-17 05:38 54.124124 -94.004990 223 37999ft 507kts
11-Sep-17 05:39 54.021842 -94.169019 223 37999ft 507kts
11-Sep-17 05:40 53.919184 -94.332506 223 37999ft 507kts
11-Sep-17 05:41 53.816205 -94.493955 222 37999ft 507kts
11-Sep-17 05:42 53.713009 -94.654587 222 37999ft 507kts
11-Sep-17 05:43 53.610125 -94.816285 222 37999ft 507kts
11-Sep-17 05:44 53.524566 -94.949662 222 37999ft 507kts
11-Sep-17 05:45 53.421262 -95.108775 222 37999ft 507kts
11-Sep-17 05:46 53.300327 -95.293533 222 37999ft 507kts
11-Sep-17 05:47 53.196189 -95.451540 222 37999ft 507kts
11-Sep-17 05:48 53.092174 -95.608288 222 37999ft 507kts
11-Sep-17 05:49 52.987773 -95.765326 221 37999ft 507kts
11-Sep-17 05:50 52.901446 -95.894600 221 37999ft 507kts
11-Sep-17 05:51 52.795991 -96.048855 221 37999ft 507kts
11-Sep-17 05:52 52.690794 -96.202317 221 37999ft 507kts
11-Sep-17 05:53 52.585868 -96.355567 221 37999ft 507kts
11-Sep-17 05:54 52.480364 -96.508626 221 37999ft 507kts
11-Sep-17 05:55 52.374961 -96.660555 221 37999ft 507kts
11-Sep-17 05:56 52.269443 -96.812574 220 37999ft 507kts
11-Sep-17 05:57 52.163615 -96.962848 220 37999ft 507kts
11-Sep-17 05:58 52.057947 -97.111677 220 37999ft 507kts
11-Sep-17 05:59 51.951490 -97.260749 220 37999ft 507kts
11-Sep-17 06:00 51.844906 -97.408422 220 37999ft 507kts
11-Sep-17 06:01 51.737468 -97.555217 220 37999ft 507kts
11-Sep-17 06:02 51.630675 -97.701867 220 37999ft 507kts
11-Sep-17 06:03 51.524285 -97.848571 220 37999ft 507kts
11-Sep-17 06:04 51.417010 -97.994428 220 37999ft 507kts
11-Sep-17 06:05 51.309360 -98.139368 220 37999ft 507kts
11-Sep-17 06:06 51.201568 -98.283652 220 37999ft 507kts
11-Sep-17 06:07 51.093606 -98.427318 220 37999ft 507kts
11-Sep-17 06:08 51.029278 -98.512490 220 37999ft 507kts
11-Sep-17 06:09 50.925017 -98.649867 220 37999ft 507kts
11-Sep-17 06:10 50.818958 -98.788830 219 37999ft 507kts
11-Sep-17 06:11 50.710159 -98.929830 219 37999ft 507kts
11-Sep-17 06:12 50.601299 -99.070513 219 37999ft 507kts
11-Sep-17 06:13 50.492706 -99.210152 219 37999ft 507kts
11-Sep-17 06:14 50.383705 -99.349443 219 37999ft 507kts
11-Sep-17 06:15 50.274308 -99.488367 219 37999ft 507kts
11-Sep-17 06:16 50.164961 -99.626398 219 37999ft 507kts
11-Sep-17 06:17 50.055812 -99.764265 218 37999ft 507kts
11-Sep-17 06:18 49.946205 -99.901330 218 37999ft 507kts
11-Sep-17 06:19 49.832267 -100.028125 212 38000ft 507kts
11-Sep-17 06:20 49.712778 -100.141815 211 38000ft 507kts
11-Sep-17 06:21 49.593590 -100.256977 212 37999ft 507kts
11-Sep-17 06:22 49.475042 -100.373170 212 37999ft 507kts
11-Sep-17 06:23 49.356354 -100.488807 212 37999ft 507kts
11-Sep-17 06:24 49.237610 -100.603621 212 37999ft 507kts
11-Sep-17 06:25 49.119495 -100.717726 212 37999ft 507kts
11-Sep-17 06:26 49.000853 -100.832311 211 37999ft 507kts
11-Sep-17 06:27 48.882089 -100.945275 211 37999ft 507kts
11-Sep-17 06:28 48.762773 -101.056663 211 37999ft 507kts
11-Sep-17 06:29 48.643041 -101.168636 211 37999ft 507kts
11-Sep-17 06:30 48.523698 -101.280233 211 37999ft 507kts
11-Sep-17 06:31 48.404272 -101.391266 211 37999ft 507kts
11-Sep-17 06:32 48.284952 -101.501520 211 37999ft 507kts
11-Sep-17 06:33 48.165273 -101.611486 211 37999ft 507kts
11-Sep-17 06:34 48.045495 -101.721597 211 37999ft 507kts
11-Sep-17 06:35 47.925916 -101.831346 211 37999ft 507kts
11-Sep-17 06:36 47.805704 -101.939266 210 37999ft 507kts
11-Sep-17 06:37 47.685469 -102.046398 211 37999ft 507kts
11-Sep-17 06:38 47.565129 -102.153964 211 37999ft 507kts
11-Sep-17 06:39 47.445559 -102.260387 211 37999ft 507kts
11-Sep-17 06:40 47.325171 -102.366929 211 37999ft 507kts
11-Sep-17 06:41 47.204378 -102.473254 211 37999ft 507kts
11-Sep-17 06:42 47.083883 -102.578744 211 37999ft 507kts
11-Sep-17 06:43 46.963379 -102.683848 210 37999ft 507kts
11-Sep-17 06:44 46.842926 -102.789557 211 37998ft 507kts
11-Sep-17 06:45 46.726820 -102.904224 215 38000ft 507kts
11-Sep-17 06:46 46.611746 -103.021685 214 38000ft 507kts
11-Sep-17 06:47 46.496284 -103.136968 214 37999ft 507kts
11-Sep-17 06:48 46.380019 -103.251737 214 37999ft 507kts
11-Sep-17 06:49 46.264056 -103.365744 214 37999ft 507kts
11-Sep-17 06:50 46.147871 -103.479454 214 37999ft 507kts
11-Sep-17 06:51 46.031405 -103.592852 214 37999ft 507kts
11-Sep-17 06:52 45.915199 -103.705821 213 37999ft 507kts
11-Sep-17 06:53 45.798845 -103.818232 213 37999ft 507kts
11-Sep-17 06:54 45.682143 -103.929477 213 37999ft 507kts
11-Sep-17 06:55 45.565376 -104.040727 213 37999ft 507kts
11-Sep-17 06:56 45.448458 -104.151722 213 37999ft 507kts
11-Sep-17 06:57 45.331186 -104.262456 213 37999ft 507kts
11-Sep-17 06:58 45.214546 -104.372023 213 37999ft 507kts
11-Sep-17 06:59 45.097503 -104.481417 213 37999ft 507kts
11-Sep-17 07:00 44.980494 -104.590245 213 37999ft 507kts
11-Sep-17 07:01 44.867186 -104.695304 213 38000ft 507kts
11-Sep-17 07:02 44.749516 -104.803713 212 37999ft 507kts
11-Sep-17 07:03 44.631914 -104.911397 212 37999ft 507kts
11-Sep-17 07:04 44.514096 -105.018826 212 37999ft 507kts
11-Sep-17 07:05 44.396258 -105.125767 212 37999ft 507kts
11-Sep-17 07:06 44.278148 -105.232430 212 37999ft 507kts
11-Sep-17 07:07 44.160331 -105.338319 212 37999ft 507kts
11-Sep-17 07:08 44.042385 -105.443814 212 37999ft 507kts
11-Sep-17 07:09 43.924225 -105.548997 212 38000ft 507kts
11-Sep-17 07:10 43.805879 -105.653057 211 38000ft 507kts
11-Sep-17 07:11 43.687250 -105.758053 212 37999ft 507kts
11-Sep-17 07:12 43.569604 -105.861918 212 37999ft 507kts
11-Sep-17 07:13 43.450709 -105.965714 212 37999ft 507kts
11-Sep-17 07:14 43.332052 -106.068799 212 37999ft 507kts
11-Sep-17 07:15 43.213089 -106.171739 212 37999ft 507kts
11-Sep-17 07:16 43.095431 -106.276264 219 37982ft 507kts
11-Sep-17 07:17 43.005471 -106.423222 236 38005ft 507kts
11-Sep-17 07:18 42.928559 -106.583737 236 38001ft 507kts
11-Sep-17 07:19 42.847624 -106.739778 233 38000ft 507kts
11-Sep-17 07:20 42.764678 -106.893325 233 38000ft 507kts
11-Sep-17 07:21 42.681884 -107.047263 233 38000ft 507kts
11-Sep-17 07:22 42.599283 -107.200836 233 37999ft 507kts
11-Sep-17 07:23 42.516363 -107.354144 233 37999ft 507kts
11-Sep-17 07:24 42.432903 -107.507580 233 37999ft 507kts
11-Sep-17 07:25 42.349507 -107.660111 233 37999ft 507kts
11-Sep-17 07:26 42.266142 -107.813070 233 38000ft 507kts
11-Sep-17 07:27 42.182414 -107.965249 233 37999ft 507kts
11-Sep-17 07:28 42.098611 -108.116104 233 37999ft 507kts
11-Sep-17 07:29 42.014322 -108.267120 233 37999ft 507kts
11-Sep-17 07:30 41.929782 -108.417898 233 37999ft 507kts
11-Sep-17 07:31 41.844896 -108.567377 232 37999ft 507kts
11-Sep-17 07:32 41.760091 -108.715755 232 37999ft 507kts
11-Sep-17 07:33 41.684743 -108.849498 232 37999ft 507kts
11-Sep-17 07:34 41.599471 -108.999054 232 37999ft 507kts
11-Sep-17 07:35 41.504101 -109.136056 223 38001ft 507kts
11-Sep-17 07:36 41.402079 -109.264656 223 38000ft 507kts
11-Sep-17 07:37 41.301702 -109.394672 224 38000ft 507kts
11-Sep-17 07:38 41.201826 -109.525625 224 37999ft 507kts
11-Sep-17 07:39 41.101692 -109.656140 224 37999ft 507kts
11-Sep-17 07:40 41.002589 -109.785685 224 37999ft 507kts
11-Sep-17 07:41 40.902407 -109.915485 224 37999ft 507kts
11-Sep-17 07:42 40.802945 -110.041641 223 37999ft 507kts
11-Sep-17 07:43 40.701778 -110.169887 224 37999ft 507kts
11-Sep-17 07:44 40.601035 -110.298106 224 37999ft 507kts
11-Sep-17 07:45 40.500090 -110.426074 224 37999ft 507kts
11-Sep-17 07:46 40.398885 -110.553716 224 37999ft 507kts
11-Sep-17 07:47 40.298176 -110.680282 223 37999ft 507kts
11-Sep-17 07:48 40.197185 -110.807898 223 37999ft 507kts
11-Sep-17 07:49 40.095655 -110.934701 223 37999ft 507kts
11-Sep-17 07:50 39.994191 -111.060300 223 37999ft 507kts
11-Sep-17 07:51 39.892678 -111.185499 223 37999ft 507kts
11-Sep-17 07:52 39.807732 -111.288656 223 37999ft 507kts
11-Sep-17 07:53 39.705472 -111.412912 223 37999ft 507kts
11-Sep-17 07:54 39.603113 -111.537791 223 37999ft 507kts
11-Sep-17 07:55 39.501035 -111.661862 222 37999ft 507kts
11-Sep-17 07:56 39.398865 -111.786669 223 38000ft 507kts
11-Sep-17 07:57 39.296640 -111.910099 222 37999ft 507kts
11-Sep-17 07:58 39.193843 -112.033079 222 37999ft 507kts
11-Sep-17 07:59 39.090828 -112.155975 222 37999ft 507kts
11-Sep-17 08:00 38.987837 -112.278577 222 37999ft 507kts
11-Sep-17 08:01 38.884815 -112.400531 222 37999ft 507kts
11-Sep-17 08:02 38.780701 -112.521687 222 37999ft 507kts
11-Sep-17 08:03 38.677476 -112.642388 222 37999ft 507kts
11-Sep-17 08:04 38.574619 -112.763970 222 37999ft 507kts
11-Sep-17 08:05 38.488692 -112.864688 222 37999ft 507kts
11-Sep-17 08:06 38.381614 -112.988677 222 37999ft 507kts
11-Sep-17 08:07 38.269251 -113.093774 211 38001ft 507kts
11-Sep-17 08:08 38.149291 -113.185287 211 38000ft 507kts
11-Sep-17 08:09 38.050547 -113.263767 212 38000ft 507kts
11-Sep-17 08:10 37.933529 -113.358908 212 38000ft 507kts
11-Sep-17 08:11 37.791646 -113.446166 200 38001ft 507kts
11-Sep-17 08:13 37.556669 -113.557938 202 38000ft 507kts
11-Sep-17 08:14 37.426749 -113.623592 202 37999ft 507kts
11-Sep-17 08:15 37.297059 -113.689467 201 37999ft 507kts
11-Sep-17 08:16 37.167305 -113.755409 201 37999ft 507kts
11-Sep-17 08:17 37.037221 -113.820184 201 37999ft 507kts
11-Sep-17 08:18 36.907066 -113.884574 201 37999ft 507kts
11-Sep-17 08:19 36.777279 -113.948128 201 37999ft 507kts
11-Sep-17 08:20 36.652001 -114.009441 201 37999ft 507kts
11-Sep-17 08:21 36.521388 -114.073526 201 37999ft 507kts
11-Sep-17 08:22 36.390831 -114.137357 201 37999ft 507kts
11-Sep-17 08:23 36.259853 -114.201133 201 37999ft 507kts
11-Sep-17 08:24 36.129103 -114.264613 201 38000ft 507kts
11-Sep-17 08:25 36.016704 -114.365757 228 38007ft 507kts
11-Sep-17 08:26 35.928011 -114.500333 231 38003ft 507kts
11-Sep-17 08:27 35.836269 -114.631455 227 38001ft 507kts
11-Sep-17 08:28 35.741841 -114.759277 227 38000ft 507kts
11-Sep-17 08:29 35.648274 -114.887943 228 38000ft 507kts
11-Sep-17 08:30 35.555652 -115.014406 227 38000ft 507kts
11-Sep-17 08:31 35.461045 -115.141670 226 38000ft 507kts
11-Sep-17 08:32 35.364820 -115.266527 226 38000ft 507kts
11-Sep-17 08:33 35.269060 -115.390631 226 38000ft 507kts
11-Sep-17 08:34 35.173120 -115.515073 226 38000ft 507kts
11-Sep-17 08:35 35.076812 -115.639335 226 37906ft 496kts
11-Sep-17 08:36 34.982843 -115.760680 226 37158ft 493kts
11-Sep-17 08:37 34.890661 -115.879155 226 35542ft 477kts
11-Sep-17 08:38 34.800119 -115.992879 225 33841ft 465kts
11-Sep-17 08:39 34.712120 -116.103955 226 32151ft 453kts
11-Sep-17 08:40 34.626837 -116.212019 226 30566ft 441kts
11-Sep-17 08:41 34.543365 -116.317441 226 28974ft 431kts
11-Sep-17 08:42 34.462109 -116.419780 226 27385ft 420kts
11-Sep-17 08:43 34.391384 -116.528896 242 25844ft 410kts
11-Sep-17 08:44 34.344620 -116.651797 245 24369ft 401kts
11-Sep-17 08:45 34.297369 -116.771145 243 22688ft 391kts
11-Sep-17 08:46 34.250303 -116.886698 243 20887ft 380kts
11-Sep-17 08:47 34.206251 -116.999909 248 19097ft 369kts
11-Sep-17 08:48 34.174854 -117.116458 252 18296ft 367kts
11-Sep-17 08:49 34.144125 -117.231115 251 16380ft 355kts
11-Sep-17 08:50 34.113290 -117.341889 251 14479ft 345kts
11-Sep-17 08:51 34.092046 -117.452618 259 12566ft 336kts
11-Sep-17 08:52 34.063887 -117.557218 246 11867ft 334kts
11-Sep-17 08:53 34.032780 -117.656227 251 10578ft 306kts
11-Sep-17 08:54 34.016307 -117.753001 263 9004ft 288kts
11-Sep-17 08:55 34.007943 -117.846684 263 7744ft 280kts
11-Sep-17 08:56 33.999133 -117.936211 263 6730ft 265kts
11-Sep-17 08:57 33.990845 -118.020004 263 5681ft 241kts
11-Sep-17 08:58 33.983205 -118.096576 263 4402ft 221kts
11-Sep-17 08:59 33.977336 -118.156423 263 3370ft 195kts
11-Sep-17 09:00 33.971220 -118.217337 263 2834ft 165kts
11-Sep-17 09:01 33.965665 -118.271015 262 2236ft 159kts
11-Sep-17 09:02 33.960336 -118.321747 262 1228ft 142kts
11-Sep-17 09:03 33.955257 -118.368691 262 555ft 141kts
11-Sep-17 09:04 33.951052 -118.413181 263 130ft 38kts
11-Sep-17 09:05 33.950668 -118.416557 260 127ft 5kts
11-Sep-17 09:06 33.950408 -118.417446 243 127ft 48kts
11-Sep-17 09:07 33.947363 -118.422219 187 124ft 0kts
11-Sep-17 09:08 33.947363 -118.422219 187 124ft 0kts
11-Sep-17 09:09 33.947173 -118.418843 82 127ft 28kts
11-Sep-17 09:10 33.948258 -118.409925 86 130ft 9kts
11-Sep-17 09:11 33.947114 -118.408377 146 130ft 0kts

Navigation Log

Ident Type
Flight plan parsing failed, navigation log unavailable